Gaspé Airport, Quebec

Past 24 Hour Conditions

Date / Time
(EST)
Conditions Temp
(°F)
Humidity
(%)
Dew Point
(°F)
Wind
(mph)
Pressure
(inches)
Vis
(mi)
Wind Chill
24 November 2014
16:00 Light Rain 39   91 37 SSE 16 gust 28 29.7 3 *
15:00 Light Rain 39   90 37 SE 13 gust 24 29.8 10 *
14:00 Light Rain 38 91 35 E 11 29.9 10 *
13:00 Mostly Cloudy 38 91 35 E 15 29.9 12 *
12:00 Light Rain 37 90 34 ENE 11 30.0 10 *
11:00 Light Rain 35 92 33 E 11 30.1 6 *
10:00 Mostly Cloudy 35 85 31 E 9 gust 17 30.1 15 *
9:00 Mostly Cloudy 30 85 26 ENE 5 30.2 15 26
8:00 Mostly Cloudy 25 86 21 calm 30.2 15 *
7:00 Mostly Cloudy 24 88 21 W 5 30.2 15 18
6:00 Mostly Cloudy 23 87 20 WSW 3 30.2 15 19
5:00 Cloudy 23 86 19 W 3 30.2 15 19
4:00 Cloudy 23 86 19 NW 2 30.2 15 20
3:00 Cloudy 22 87 19 calm 30.2 15 *
2:00 Cloudy 21 87 18 calm 30.2 15 *
1:00 Cloudy 20 88 17 WSW 3 30.2 15 17
00:00 Cloudy 19 89 17 SW 4 30.2 15 14
23 November 2014
23:00 Partly Cloudy 19 89 16 NW 3 30.2 15 14
22:00 Clear 18   92 16 W 5 30.2 15 11
21:00 Clear 19 91 16 W 6 30.1 15 10
20:00 Mainly Clear 19 91 17 W 4 30.1 15 14
19:00 Partly Cloudy 21 84 17 NW 3 30.1 15 18
18:00 Partly Cloudy 23 80 18 calm 30.1 15 *
17:00 Mainly Clear 25 74 18 calm 30.1 15 23
16:00 Partly Cloudy 28 69 19 calm 30.0 15 27
N/A Not available
↑ Highest temperature
↓ Lowest temperature
* Value not significant.

If you require additional historical weather information, please visit Climate Data Online.

Date modified: